Terminal Aerodrome Forecast
Issued by NWS

Current Version | Previous Version | Text Only | Print | Product List | Glossary On
Versions: 1 2 3 4 5 6 7 8 9 10 11 12 13 14 15 16 17 18 19 20 21 22 23 24 25
000
FTUS46 KLOX 231700 RRA
TAFSBA
TAF
KSBA 231747Z 2318/2418 VRB05KT P6SM BKN200
     FM232000 21007KT P6SM SCT200
     FM240200 VRB04KT P6SM SCT200
     FM241700 16006KT P6SM SKC=

USA.gov is the U.S. government's official web portal to all federal, state and local government web resources and services.